Time;durP1;ratioP1;P1;durP2;ratioP2;P2;SDS_P1;SDS_P2;PMS_P1;PMS_P2;Temp;Humidity;BMP_temperature;BMP_pressure;BME280_temperature;BME280_humidity;BME280_pressure;Samples;Min_cycle;Max_cycle;Signal;HPM_P1;HPM_P2
2021/06/13 00:01:21;;;;;;;15.13;13.63;;;21.30;79.80;;;;;;5097904;28;20068;-68
2021/06/13 00:03:48;;;;;;;16.38;13.75;;;21.30;79.80;;;;;;5097528;28;20024;-68
2021/06/13 00:06:13;;;;;;;14.63;13.23;;;21.30;79.90;;;;;;5097754;28;20059;-68
2021/06/13 00:08:39;;;;;;;16.48;12.98;;;21.30;80.30;;;;;;5097772;28;20039;-68
2021/06/13 00:11:06;;;;;;;14.35;12.85;;;21.30;80.70;;;;;;5097565;28;20043;-68
2021/06/13 00:13:32;;;;;;;14.52;12.43;;;21.20;81.20;;;;;;5097474;28;20427;-69
2021/06/13 00:15:57;;;;;;;15.40;13.90;;;21.10;81.70;;;;;;5097261;28;20031;-68
2021/06/13 00:18:24;;;;;;;13.77;12.40;;;21.00;81.60;;;;;;5097534;28;20024;-68
2021/06/13 00:20:51;;;;;;;15.10;13.55;;;21.00;81.70;;;;;;5097224;28;20073;-68
2021/06/13 00:23:18;;;;;;;13.68;12.38;;;20.90;81.80;;;;;;5097521;28;20024;-68
2021/06/13 00:25:44;;;;;;;15.63;13.93;;;20.70;82.50;;;;;;5097064;28;20024;-68
2021/06/13 00:28:09;;;;;;;18.27;15.75;;;20.60;83.10;;;;;;5097377;28;20050;-68
2021/06/13 00:30:36;;;;;;;19.05;14.93;;;20.60;83.50;;;;;;5097000;28;20123;-68
2021/06/13 00:33:03;;;;;;;15.55;14.15;;;20.50;83.70;;;;;;5096969;28;20420;-69
2021/06/13 00:35:28;;;;;;;16.50;14.75;;;20.60;83.10;;;;;;5097322;28;20040;-68
2021/06/13 00:37:54;;;;;;;15.07;13.48;;;20.60;83.30;;;;;;5096777;28;20394;-70
2021/06/13 00:40:22;;;;;;;16.33;14.73;;;20.60;83.40;;;;;;5097244;28;20051;-69
2021/06/13 00:42:49;;;;;;;14.77;13.23;;;20.60;83.20;;;;;;5096834;28;20068;-70
2021/06/13 00:45:15;;;;;;;16.92;15.18;;;20.70;83.80;;;;;;5097147;28;20048;-70
2021/06/13 00:47:42;;;;;;;17.42;14.05;;;20.70;84.00;;;;;;5096546;28;20034;-70
2021/06/13 00:50:13;;;;;;;15.90;14.25;;;20.60;84.10;;;;;;5097022;28;20024;-69
2021/06/13 00:52:39;;;;;;;16.88;15.02;;;20.60;84.00;;;;;;5096787;28;20048;-70
2021/06/13 00:55:05;;;;;;;16.60;14.90;;;20.50;84.90;;;;;;5096720;28;20024;-69
2021/06/13 00:57:31;;;;;;;14.13;12.70;;;20.40;85.30;;;;;;5096745;28;20408;-69
2021/06/13 00:59:57;;;;;;;13.13;11.82;;;20.20;85.20;;;;;;5096677;28;20165;-68
2021/06/13 01:02:23;;;;;;;14.20;12.80;;;20.10;85.70;;;;;;5097020;28;20064;-68
2021/06/13 01:04:49;;;;;;;13.88;12.27;;;20.00;85.80;;;;;;5096938;28;20059;-68
2021/06/13 01:07:44;;;;;;;18.63;13.93;;;19.90;86.50;;;;;;5096969;28;20300;-68
2021/06/13 01:10:30;;;;;;;15.68;14.10;;;20.00;86.20;;;;;;5096577;28;20519;-68
2021/06/13 01:12:56;;;;;;;;;;;20.00;85.80;;;;;;5097052;28;20024;-68
2021/06/13 01:15:29;;;;;;;16.17;14.48;;;20.00;85.70;;;;;;5096485;28;19916;-68
2021/06/13 01:18:02;;;;;;;15.70;14.05;;;19.90;85.90;;;;;;5096774;28;20062;-68
2021/06/13 01:20:43;;;;;;;15.88;14.38;;;20.00;86.10;;;;;;5096612;28;20032;-68
2021/06/13 01:23:42;;;;;;;15.07;13.55;;;20.10;85.20;;;;;;5096580;28;20423;-68
2021/06/13 01:26:40;;;;;;;14.13;12.55;;;20.20;84.60;;;;;;5096389;28;20485;-68
2021/06/13 01:29:22;;;;;;;14.50;13.10;;;20.20;85.20;;;;;;5096402;28;20412;-68
2021/06/13 01:31:55;;;;;;;21.52;16.77;;;19.90;86.20;;;;;;5096393;28;20036;-68
2021/06/13 01:34:39;;;;;;;19.15;17.30;;;19.80;87.00;;;;;;5096789;28;20069;-68
2021/06/13 01:37:08;;;;;;;15.52;14.02;;;19.90;86.50;;;;;;5096425;28;20028;-68
2021/06/13 01:39:38;;;;;;;16.15;13.95;;;19.90;85.90;;;;;;5096640;28;20024;-68
2021/06/13 01:42:05;;;;;;;16.10;14.40;;;19.90;84.40;;;;;;5096367;28;20028;-68
2021/06/13 01:44:32;;;;;;;14.43;12.25;;;19.90;84.70;;;;;;5096838;28;20032;-70
2021/06/13 01:47:01;;;;;;;12.55;11.40;;;20.00;84.70;;;;;;5096527;28;20032;-70
2021/06/13 01:49:29;;;;;;;12.15;10.93;;;20.10;84.00;;;;;;5096178;28;20024;-68
2021/06/13 01:51:55;;;;;;;12.00;10.85;;;20.10;83.60;;;;;;5096547;28;20357;-71
2021/06/13 01:54:23;;;;;;;10.63;9.52;;;20.10;83.90;;;;;;5096570;28;20158;-71
2021/06/13 01:56:51;;;;;;;13.05;11.65;;;20.10;84.60;;;;;;5096460;28;20024;-71
2021/06/13 01:59:18;;;;;;;15.30;13.68;;;20.00;85.30;;;;;;5097406;28;20026;-68
2021/06/13 02:01:46;;;;;;;14.48;12.93;;;20.00;85.30;;;;;;5100159;28;20020;-68
2021/06/13 02:04:12;;;;;;;15.82;14.27;;;20.00;85.80;;;;;;5099881;28;20024;-69
2021/06/13 02:06:45;;;;;;;16.20;14.38;;;19.90;85.80;;;;;;5100025;28;20024;-69
2021/06/13 02:09:13;;;;;;;15.80;13.85;;;19.90;86.50;;;;;;5099991;28;20016;-69
2021/06/13 02:11:42;;;;;;;16.38;14.68;;;19.80;87.20;;;;;;5099665;28;20016;-69
2021/06/13 02:14:09;;;;;;;17.10;14.82;;;19.80;87.10;;;;;;5099705;28;20344;-69
2021/06/13 02:16:39;;;;;;;22.23;15.98;;;19.70;87.20;;;;;;5099862;28;20119;-69
2021/06/13 02:19:05;;;;;;;17.63;15.82;;;19.60;87.80;;;;;;5099532;28;20030;-69
2021/06/13 02:21:31;;;;;;;18.40;16.60;;;19.60;88.10;;;;;;5099483;28;20017;-69
2021/06/13 02:23:57;;;;;;;18.00;15.70;;;19.60;87.70;;;;;;5099799;28;20039;-69
2021/06/13 02:26:24;;;;;;;16.75;15.05;;;19.70;87.40;;;;;;5099315;28;20028;-69
2021/06/13 02:28:56;;;;;;;18.35;14.45;;;19.70;86.80;;;;;;5099308;28;20426;-69
2021/06/13 02:31:29;;;;;;;18.52;16.70;;;19.70;87.30;;;;;;5099208;28;20465;-69
2021/06/13 02:33:58;;;;;;;21.30;17.52;;;19.70;87.00;;;;;;5099567;28;20349;-69
2021/06/13 02:36:24;;;;;;;18.88;17.05;;;19.80;86.70;;;;;;5099454;28;20020;-69
2021/06/13 02:38:56;;;;;;;19.67;17.67;;;19.80;86.50;;;;;;5099485;28;20020;-69
2021/06/13 02:41:22;;;;;;;19.38;17.48;;;19.90;86.80;;;;;;5099101;28;20119;-68
2021/06/13 02:43:48;;;;;;;20.70;18.25;;;19.80;87.40;;;;;;5099566;28;20102;-69
2021/06/13 02:46:14;;;;;;;20.95;18.92;;;19.80;87.60;;;;;;5098987;28;20048;-69
2021/06/13 02:48:39;;;;;;;21.05;18.85;;;19.70;87.40;;;;;;5099244;28;20032;-69
2021/06/13 02:51:05;;;;;;;20.52;18.23;;;19.70;87.30;;;;;;5099091;28;20400;-69
2021/06/13 02:53:48;;;;;;;20.73;18.73;;;19.70;88.10;;;;;;5099243;28;20401;-69
2021/06/13 02:56:54;;;;;;;21.58;19.45;;;19.70;87.90;;;;;;5098811;28;20104;-69
2021/06/13 02:59:41;;;;;;;23.05;17.60;;;19.70;87.70;;;;;;5098790;28;20423;-69
2021/06/13 03:02:11;;;;;;;18.17;16.30;;;19.70;87.30;;;;;;5099039;28;20012;-69
2021/06/13 03:04:38;;;;;;;16.42;14.73;;;19.70;86.30;;;;;;5098996;28;20370;-69
2021/06/13 03:07:04;;;;;;;14.98;13.48;;;19.70;85.70;;;;;;5098832;28;20110;-69
2021/06/13 03:09:31;;;;;;;16.38;13.35;;;19.70;85.70;;;;;;5098757;28;20111;-69
2021/06/13 03:11:58;;;;;;;17.75;13.73;;;19.80;85.10;;;;;;5098220;28;20028;-69
2021/06/13 03:28:25;;;;;;;16.30;14.65;;;19.90;85.50;;;;;;5076511;28;20194;-69
2021/06/13 03:30:53;;;;;;;18.05;15.75;;;19.80;86.10;;;;;;5098417;28;20036;-69
2021/06/13 03:33:20;;;;;;;16.48;14.88;;;19.80;85.90;;;;;;5098116;28;20035;-69
2021/06/13 03:35:47;;;;;;;18.65;16.85;;;19.60;86.70;;;;;;5098306;28;20039;-69
2021/06/13 03:38:14;;;;;;;20.23;17.23;;;19.60;87.20;;;;;;5098261;28;20101;-69
2021/06/13 03:40:40;;;;;;;20.40;18.40;;;19.70;87.00;;;;;;5097967;28;20030;-69
2021/06/13 03:43:06;;;;;;;18.33;16.17;;;19.70;86.60;;;;;;5097965;28;20066;-69
2021/06/13 03:45:32;;;;;;;21.38;18.65;;;19.80;87.00;;;;;;5098160;28;20107;-69
2021/06/13 03:47:59;;;;;;;20.75;18.60;;;19.80;86.60;;;;;;5098158;28;20358;-69
2021/06/13 03:50:26;;;;;;;24.10;19.15;;;19.80;87.00;;;;;;5098038;28;20047;-69
2021/06/13 03:52:52;;;;;;;23.23;20.73;;;19.70;87.70;;;;;;5097750;28;20412;-69
2021/06/13 03:55:18;;;;;;;24.52;21.17;;;19.70;87.60;;;;;;5097981;28;20026;-69
2021/06/13 03:57:47;;;;;;;23.98;21.45;;;19.70;86.60;;;;;;5097941;28;20367;-69
2021/06/13 04:00:14;;;;;;;21.45;19.25;;;19.90;85.80;;;;;;5097595;28;20031;-69
2021/06/13 04:02:44;;;;;;;21.27;18.80;;;20.00;85.80;;;;;;5097543;28;20020;-69
2021/06/13 04:05:12;;;;;;;15.60;14.00;;;20.00;84.40;;;;;;5097791;28;20123;-69
2021/06/13 04:07:40;;;;;;;11.27;9.63;;;20.20;84.00;;;;;;5097765;28;20370;-69
2021/06/13 04:10:07;;;;;;;12.25;10.88;;;20.20;81.40;;;;;;5097647;28;20024;-69
2021/06/13 04:12:33;;;;;;;12.90;10.30;;;20.30;81.80;;;;;;5097836;28;20361;-69
2021/06/13 04:15:00;;;;;;;12.98;11.73;;;20.30;83.20;;;;;;5098067;28;20077;-69
2021/06/13 04:17:27;;;;;;;15.07;13.40;;;20.40;83.20;;;;;;5097632;28;20028;-69
2021/06/13 04:19:53;;;;;;;13.45;11.57;;;20.40;83.00;;;;;;5097530;28;20026;-69
2021/06/13 04:22:21;;;;;;;12.10;10.93;;;20.40;83.70;;;;;;5096920;28;20036;-69
2021/06/13 04:24:49;;;;;;;11.98;10.73;;;20.30;83.90;;;;;;5097454;28;20107;-69
2021/06/13 04:27:19;;;;;;;15.13;13.50;;;20.30;84.90;;;;;;5097446;28;20039;-69
2021/06/13 04:29:46;;;;;;;16.67;14.05;;;20.20;84.70;;;;;;5097027;28;20123;-69
2021/06/13 04:32:11;;;;;;;18.92;15.25;;;20.20;84.90;;;;;;5097026;28;20024;-69
2021/06/13 04:34:38;;;;;;;14.18;12.50;;;20.30;85.30;;;;;;5097351;28;20027;-69
2021/06/13 04:37:04;;;;;;;14.60;9.90;;;20.30;84.80;;;;;;5096946;28;20028;-69
2021/06/13 04:39:30;;;;;;;11.45;10.25;;;20.30;85.50;;;;;;5097237;28;20027;-69
2021/06/13 04:41:55;;;;;;;15.15;13.55;;;20.40;86.00;;;;;;5097992;28;20085;-69
2021/06/13 04:44:21;;;;;;;15.77;14.13;;;20.40;86.20;;;;;;5096950;28;20038;-69
2021/06/13 04:46:47;;;;;;;16.45;14.88;;;20.40;85.90;;;;;;5096810;28;20049;-69
2021/06/13 04:49:13;;;;;;;17.13;14.48;;;20.40;86.30;;;;;;5096743;28;20446;-69
2021/06/13 04:51:42;;;;;;;13.55;11.95;;;20.50;85.90;;;;;;5097096;28;20103;-69
2021/06/13 04:54:19;;;;;;;12.90;11.60;;;20.40;86.20;;;;;;5097156;28;20032;-69
2021/06/13 04:57:05;;;;;;;14.35;12.52;;;20.50;84.70;;;;;;5097048;28;20375;-69
2021/06/13 04:59:31;;;;;;;13.90;11.90;;;20.60;83.90;;;;;;5096742;28;20024;-69
2021/06/13 05:01:59;;;;;;;11.43;10.32;;;20.70;85.40;;;;;;5096988;28;20080;-69
2021/06/13 05:04:24;;;;;;;15.52;13.02;;;20.70;86.60;;;;;;5096710;28;20024;-69
2021/06/13 05:06:50;;;;;;;15.55;14.10;;;20.70;85.30;;;;;;5096881;28;20036;-69
2021/06/13 05:09:16;;;;;;;20.10;15.05;;;20.70;84.60;;;;;;5096850;28;20020;-69
2021/06/13 05:11:41;;;;;;;16.42;14.70;;;20.80;86.40;;;;;;5096637;28;20181;-69
2021/06/13 05:14:07;;;;;;;16.70;14.98;;;20.80;83.90;;;;;;5097189;28;20028;-69
2021/06/13 05:16:33;;;;;;;14.93;13.52;;;20.90;85.50;;;;;;5096505;28;20028;-69
2021/06/13 05:18:59;;;;;;;17.20;14.88;;;21.00;85.00;;;;;;5096576;28;20028;-69
2021/06/13 05:21:25;;;;;;;15.65;14.15;;;21.10;84.20;;;;;;5096542;28;20032;-69
2021/06/13 05:23:50;;;;;;;14.82;13.30;;;21.20;84.80;;;;;;5096868;28;20035;-69
2021/06/13 05:26:16;;;;;;;12.82;11.52;;;21.40;85.20;;;;;;5096719;28;20020;-69
2021/06/13 05:28:43;;;;;;;13.50;12.20;;;21.40;86.20;;;;;;5096499;28;20040;-69
2021/06/13 05:31:08;;;;;;;13.75;12.30;;;21.50;85.40;;;;;;5096415;28;20038;-69
2021/06/13 05:33:34;;;;;;;16.13;14.25;;;21.60;85.80;;;;;;5096765;28;20095;-69
2021/06/13 05:36:01;;;;;;;16.48;14.90;;;21.70;84.40;;;;;;5100179;28;20473;-69
2021/06/13 05:38:28;;;;;;;17.42;15.63;;;21.80;81.60;;;;;;5100646;28;20073;-69
2021/06/13 05:40:54;;;;;;;15.68;14.15;;;21.80;81.00;;;;;;5100560;28;20111;-69
2021/06/13 05:43:20;;;;;;;14.68;13.10;;;21.90;79.70;;;;;;5100421;28;20082;-69
2021/06/13 05:45:46;;;;;;;18.40;15.70;;;21.90;78.40;;;;;;5100161;28;20431;-69
2021/06/13 05:48:12;;;;;;;15.45;14.10;;;22.00;80.00;;;;;;5100125;28;20428;-69
2021/06/13 05:50:39;;;;;;;17.63;14.60;;;22.00;80.80;;;;;;5100345;28;20035;-69
2021/06/13 05:53:06;;;;;;;15.02;13.55;;;22.20;81.20;;;;;;5100362;28;20035;-69
2021/06/13 05:55:32;;;;;;;13.27;12.07;;;22.30;81.20;;;;;;5100307;28;20030;-69
2021/06/13 05:57:58;;;;;;;16.02;13.15;;;22.50;82.30;;;;;;5099978;28;20020;-69
2021/06/13 06:00:34;;;;;;;16.00;13.50;;;22.60;83.00;;;;;;5099965;28;20122;-69
2021/06/13 06:03:00;;;;;;;13.95;12.55;;;22.70;83.30;;;;;;5100200;28;20030;-69
2021/06/13 06:05:26;;;;;;;13.15;11.95;;;22.90;82.80;;;;;;5100079;28;20036;-69
2021/06/13 06:07:53;;;;;;;11.50;10.40;;;23.00;82.50;;;;;;5100070;28;20325;-69
2021/06/13 06:10:21;;;;;;;12.63;11.32;;;23.10;83.20;;;;;;5099975;28;20039;-69
2021/06/13 06:12:47;;;;;;;14.43;11.30;;;23.30;81.10;;;;;;5099630;28;20095;-69
2021/06/13 06:15:16;;;;;;;11.82;10.73;;;23.40;77.90;;;;;;5099883;28;20055;-69
2021/06/13 06:17:43;;;;;;;11.48;9.02;;;23.50;78.40;;;;;;5099556;28;20050;-69
2021/06/13 06:20:11;;;;;;;12.68;11.07;;;23.70;77.30;;;;;;5099567;28;20030;-69
2021/06/13 06:22:37;;;;;;;9.85;8.90;;;23.90;73.10;;;;;;5099635;28;20024;-69
2021/06/13 06:25:05;;;;;;;11.25;9.55;;;24.00;74.50;;;;;;5099710;28;20047;-69
2021/06/13 06:27:30;;;;;;;10.98;9.88;;;24.30;74.70;;;;;;5099328;28;20027;-69
2021/06/13 06:29:56;;;;;;;12.10;10.90;;;24.50;72.30;;;;;;5099090;28;20052;-69
2021/06/13 06:32:22;;;;;;;11.88;9.95;;;24.80;71.10;;;;;;5099587;28;20316;-69
2021/06/13 06:34:47;;;;;;;9.55;8.48;;;24.80;73.50;;;;;;5099537;28;20024;-69
2021/06/13 06:37:13;;;;;;;9.30;7.47;;;24.90;71.70;;;;;;5099480;28;20025;-69
2021/06/13 06:39:39;;;;;;;8.85;8.05;;;24.80;71.30;;;;;;5099444;28;20481;-69
2021/06/13 06:42:05;;;;;;;7.70;6.88;;;24.70;69.70;;;;;;5099359;28;20158;-69
2021/06/13 06:44:31;;;;;;;8.48;7.13;;;24.60;72.80;;;;;;5099158;28;20115;-69
2021/06/13 06:47:01;;;;;;;9.98;6.70;;;24.70;71.70;;;;;;5099038;28;20027;-69
2021/06/13 06:49:31;;;;;;;8.20;7.07;;;25.00;73.40;;;;;;5098894;28;20107;-69
2021/06/13 06:51:57;;;;;;;9.43;7.88;;;25.30;70.50;;;;;;5098905;28;20046;-69
2021/06/13 06:54:23;;;;;;;8.98;8.07;;;25.70;70.10;;;;;;5099126;28;20320;-69
2021/06/13 06:56:49;;;;;;;9.25;8.35;;;25.80;68.40;;;;;;5098744;28;20035;-69
2021/06/13 06:59:14;;;;;;;9.48;8.50;;;26.00;68.40;;;;;;5099049;28;20056;-69
2021/06/13 07:01:41;;;;;;;9.80;8.85;;;26.10;67.10;;;;;;5099003;28;20021;-69
2021/06/13 07:04:07;;;;;;;9.55;8.65;;;25.90;66.10;;;;;;5098716;28;20032;-69
2021/06/13 07:06:33;;;;;;;9.45;8.48;;;25.90;68.00;;;;;;5098869;28;20020;-69
2021/06/13 07:08:59;;;;;;;10.88;8.70;;;26.10;65.70;;;;;;5098549;28;20474;-69
2021/06/13 07:11:24;;;;;;;9.77;8.85;;;26.40;66.20;;;;;;5098771;28;20024;-69
2021/06/13 07:13:50;;;;;;;7.75;7.05;;;26.50;66.40;;;;;;5099013;28;20039;-69
2021/06/13 07:16:16;;;;;;;10.18;9.18;;;26.80;66.70;;;;;;5098374;28;20408;-69
2021/06/13 07:18:42;;;;;;;8.73;7.05;;;26.80;64.60;;;;;;5098353;28;20035;-69
2021/06/13 07:21:08;;;;;;;8.85;6.93;;;26.80;67.40;;;;;;5098396;28;20020;-69
2021/06/13 07:23:34;;;;;;;8.15;6.97;;;27.00;64.90;;;;;;5098563;28;20431;-69
2021/06/13 07:26:00;;;;;;;8.02;6.80;;;27.10;64.70;;;;;;5098497;28;20016;-70
2021/06/13 07:28:26;;;;;;;6.70;5.97;;;27.40;63.30;;;;;;5098290;28;20028;-69
2021/06/13 07:30:52;;;;;;;6.65;6.03;;;27.70;64.50;;;;;;5098113;28;20320;-69
2021/06/13 07:33:17;;;;;;;7.43;6.72;;;27.90;62.50;;;;;;5098200;28;20059;-69
2021/06/13 07:35:43;;;;;;;7.53;6.47;;;28.20;61.90;;;;;;5098046;28;20017;-69
2021/06/13 07:38:09;;;;;;;9.30;6.35;;;28.10;62.70;;;;;;5098349;28;20028;-70
2021/06/13 07:40:35;;;;;;;7.05;5.63;;;28.30;63.90;;;;;;5097993;28;20052;-70
2021/06/13 07:43:01;;;;;;;8.68;6.07;;;28.40;63.20;;;;;;5098166;28;20028;-70
2021/06/13 07:45:27;;;;;;;7.70;7.00;;;28.70;63.20;;;;;;5098185;28;20119;-70
2021/06/13 07:47:54;;;;;;;7.70;7.00;;;28.90;60.00;;;;;;5098146;28;20027;-70
2021/06/13 07:50:20;;;;;;;6.80;6.15;;;28.90;59.50;;;;;;5098012;28;20034;-70
2021/06/13 07:52:47;;;;;;;7.35;6.43;;;29.00;60.60;;;;;;5097993;28;20016;-70
2021/06/13 07:55:16;;;;;;;6.82;6.15;;;29.00;61.20;;;;;;5097652;28;20066;-70
2021/06/13 07:57:43;;;;;;;6.13;5.50;;;29.00;62.50;;;;;;5096800;28;20020;-70
2021/06/13 08:00:11;;;;;;;6.03;5.43;;;29.00;63.10;;;;;;5097692;28;20028;-70
2021/06/13 08:02:38;;;;;;;6.15;5.55;;;29.10;63.30;;;;;;5097570;28;20042;-70
2021/06/13 08:05:13;;;;;;;6.22;5.63;;;29.00;63.70;;;;;;5097782;28;20056;-70
2021/06/13 08:07:39;;;;;;;5.47;4.97;;;28.80;62.80;;;;;;5097522;28;20024;-70
2021/06/13 08:10:07;;;;;;;8.77;5.75;;;29.00;63.40;;;;;;5097375;28;20042;-70
2021/06/13 08:12:33;;;;;;;8.25;5.88;;;29.20;63.00;;;;;;5097629;28;20016;-70
2021/06/13 08:14:59;;;;;;;5.47;4.25;;;29.30;63.60;;;;;;5098082;28;20047;-70
2021/06/13 08:17:25;;;;;;;7.53;4.75;;;29.50;63.30;;;;;;5097620;28;20016;-70
2021/06/13 08:19:51;;;;;;;6.72;6.03;;;29.70;63.80;;;;;;5097256;28;20067;-70
2021/06/13 08:22:17;;;;;;;5.82;5.22;;;29.60;59.20;;;;;;5097200;28;20035;-70
2021/06/13 08:24:42;;;;;;;8.35;6.05;;;29.60;59.20;;;;;;5097155;28;20032;-70
2021/06/13 08:27:08;;;;;;;6.55;5.95;;;29.60;59.70;;;;;;5097491;28;20066;-70
2021/06/13 08:29:34;;;;;;;7.38;5.80;;;29.30;60.00;;;;;;5096981;28;20320;-70
2021/06/13 08:32:00;;;;;;;5.63;5.10;;;29.30;62.10;;;;;;5097352;28;20033;-70
2021/06/13 08:34:26;;;;;;;6.40;5.80;;;29.30;64.80;;;;;;5097455;28;20420;-70
2021/06/13 08:36:52;;;;;;;8.48;5.57;;;29.20;65.10;;;;;;5097265;28;20376;-70
2021/06/13 08:39:18;;;;;;;6.22;5.63;;;29.20;63.90;;;;;;5097014;28;20027;-69
2021/06/13 08:41:44;;;;;;;6.55;5.78;;;29.40;64.70;;;;;;5096945;28;20058;-70
2021/06/13 08:44:09;;;;;;;6.63;5.88;;;29.50;62.40;;;;;;5097060;28;20028;-70
2021/06/13 08:46:39;;;;;;;6.40;5.80;;;29.50;63.90;;;;;;5097162;28;20077;-70
2021/06/13 08:49:05;;;;;;;10.23;7.53;;;29.50;64.50;;;;;;5096813;28;20435;-70
2021/06/13 08:51:32;;;;;;;7.43;6.75;;;29.70;62.00;;;;;;5097062;28;20052;-70
2021/06/13 08:53:57;;;;;;;8.43;7.05;;;29.70;62.60;;;;;;5097108;28;20020;-70
2021/06/13 08:56:23;;;;;;;6.70;6.05;;;29.70;61.10;;;;;;5097033;28;20016;-70
2021/06/13 08:58:50;;;;;;;7.20;6.50;;;29.60;61.30;;;;;;5096751;28;20020;-70
2021/06/13 09:01:16;;;;;;;8.30;7.40;;;29.80;61.30;;;;;;5097033;28;20358;-70
2021/06/13 09:03:43;;;;;;;7.97;6.63;;;29.80;59.80;;;;;;5096728;28;20085;-70
2021/06/13 09:06:09;;;;;;;9.40;8.35;;;30.00;61.10;;;;;;5096898;28;20294;-70
2021/06/13 09:08:43;;;;;;;7.30;6.60;;;30.10;58.00;;;;;;5098539;28;20024;-70
2021/06/13 09:11:24;;;;;;;8.68;7.72;;;30.20;62.40;;;;;;5101116;28;20042;-70
2021/06/13 09:13:49;;;;;;;9.73;8.82;;;30.30;60.40;;;;;;5101210;28;20020;-70
2021/06/13 09:16:15;;;;;;;10.15;9.15;;;30.30;59.30;;;;;;5100988;28;20035;-70
2021/06/13 09:18:44;;;;;;;11.88;7.70;;;30.20;58.70;;;;;;5101029;28;20403;-70
2021/06/13 09:21:18;;;;;;;8.52;7.10;;;30.20;60.10;;;;;;5100708;28;20432;-70
2021/06/13 09:23:43;;;;;;;9.73;6.95;;;30.50;62.20;;;;;;5100948;28;20106;-70
2021/06/13 09:26:12;;;;;;;9.20;8.30;;;31.10;62.50;;;;;;5100824;28;20471;-70
2021/06/13 09:28:42;;;;;;;7.15;6.45;;;31.40;57.40;;;;;;5100638;28;20786;-70
2021/06/13 09:31:27;;;;;;;6.70;6.00;;;32.20;58.90;;;;;;5100409;28;20111;-70
2021/06/13 09:33:55;;;;;;;6.83;6.23;;;32.40;57.00;;;;;;5100457;28;20419;-70
2021/06/13 09:36:25;;;;;;;8.63;5.45;;;32.50;54.70;;;;;;5100350;28;20320;-70
2021/06/13 09:39:01;;;;;;;7.90;7.00;;;32.60;56.60;;;;;;5100648;28;20048;-70
2021/06/13 09:41:27;;;;;;;7.25;6.55;;;32.80;56.40;;;;;;5100337;28;20458;-70
2021/06/13 09:44:05;;;;;;;7.97;7.18;;;32.80;56.70;;;;;;5100458;28;20374;-70
2021/06/13 09:46:35;;;;;;;7.32;6.63;;;32.80;55.20;;;;;;5100209;28;20059;-70
2021/06/13 09:49:07;;;;;;;8.05;7.18;;;32.90;56.60;;;;;;5100152;28;20204;-70
2021/06/13 09:51:35;;;;;;;7.15;6.43;;;32.80;55.10;;;;;;5100333;28;20297;-70
2021/06/13 09:54:21;;;;;;;9.65;8.60;;;32.70;58.00;;;;;;5100424;28;20024;-70
2021/06/13 09:56:49;;;;;;;8.00;7.30;;;32.80;55.60;;;;;;5099851;28;20047;-70
2021/06/13 09:59:17;;;;;;;7.97;6.88;;;32.60;55.90;;;;;;5099949;28;20050;-70
2021/06/13 10:01:44;;;;;;;9.02;6.95;;;32.70;58.00;;;;;;5100166;28;20081;-70
2021/06/13 10:04:18;;;;;;;8.93;8.02;;;32.90;54.70;;;;;;5100201;28;20032;-70
2021/06/13 10:06:49;;;;;;;8.93;8.15;;;32.70;55.60;;;;;;5100056;28;20036;-70
2021/06/13 10:09:21;;;;;;;13.25;7.63;;;32.30;55.80;;;;;;5100137;28;20020;-70
2021/06/13 10:11:49;;;;;;;8.38;7.40;;;32.40;57.40;;;;;;5099717;28;20031;-70
2021/06/13 10:14:17;;;;;;;9.82;6.97;;;32.60;57.80;;;;;;5099992;28;20102;-70
2021/06/13 10:16:52;;;;;;;8.90;7.40;;;32.90;60.30;;;;;;5097756;28;20109;-70
2021/06/13 10:19:19;;;;;;;8.32;7.45;;;33.00;58.30;;;;;;5110287;28;20034;-70
2021/06/13 10:21:54;;;;;;;9.70;8.63;;;33.00;58.30;;;;;;5099273;28;20024;-70
2021/06/13 10:24:19;;;;;;;;;;;33.00;55.30;;;;;;5100263;28;20055;-70
2021/06/13 10:26:59;;;;;;;8.68;7.78;;;32.90;56.60;;;;;;5099657;28;20288;-70
2021/06/13 10:29:27;;;;;;;8.75;7.88;;;32.70;55.10;;;;;;5099149;28;20051;-70
2021/06/13 10:31:55;;;;;;;8.38;7.57;;;32.80;54.90;;;;;;5099570;28;20032;-70
2021/06/13 10:34:23;;;;;;;8.65;7.10;;;32.60;55.60;;;;;;5099586;28;20127;-70
2021/06/13 10:36:50;;;;;;;7.60;6.90;;;32.50;57.80;;;;;;5098994;28;20115;-70
2021/06/13 10:39:18;;;;;;;9.07;6.57;;;32.50;58.30;;;;;;5099984;28;20308;-70
2021/06/13 10:41:44;;;;;;;6.45;5.57;;;32.50;55.60;;;;;;5099384;28;20035;-70
2021/06/13 10:44:14;;;;;;;6.65;4.55;;;32.70;56.30;;;;;;5099571;28;20028;-70
2021/06/13 10:46:43;;;;;;;10.20;6.85;;;32.90;56.50;;;;;;5099004;28;20476;-70
2021/06/13 10:49:27;;;;;;;6.90;6.30;;;32.90;56.80;;;;;;5099343;28;20085;-70
2021/06/13 10:52:04;;;;;;;5.20;4.70;;;33.00;51.80;;;;;;5099227;28;20059;-70
2021/06/13 10:54:41;;;;;;;4.10;3.70;;;32.60;52.70;;;;;;5099270;28;20066;-70
2021/06/13 10:57:13;;;;;;;4.05;3.65;;;32.50;53.80;;;;;;5098875;28;20040;-70
2021/06/13 10:59:41;;;;;;;4.47;3.40;;;32.60;53.00;;;;;;5099104;28;20048;-70
2021/06/13 11:02:17;;;;;;;3.28;2.95;;;32.70;56.50;;;;;;5098770;28;20024;-70
2021/06/13 11:04:44;;;;;;;4.00;3.13;;;32.80;55.00;;;;;;5098671;28;20031;-70
2021/06/13 11:07:34;;;;;;;3.88;3.00;;;32.70;52.80;;;;;;5098671;28;20030;-70
2021/06/13 11:10:06;;;;;;;5.10;3.67;;;32.70;53.90;;;;;;5098875;28;20032;-70
2021/06/13 11:12:46;;;;;;;3.15;2.85;;;32.60;53.60;;;;;;5098554;28;20466;-70
2021/06/13 11:15:12;;;;;;;3.90;2.97;;;32.50;54.00;;;;;;5098514;28;20040;-70
2021/06/13 11:18:03;;;;;;;6.03;3.13;;;32.30;53.60;;;;;;5098465;28;20024;-70
2021/06/13 11:23:05;;;;;;;8.82;2.88;;;32.30;56.70;;;;;;5098748;28;20105;-70
2021/06/13 11:25:31;;;;;;;4.13;3.72;;;32.30;55.60;;;;;;5098256;28;20024;-70
2021/06/13 11:28:15;;;;;;;5.43;4.22;;;32.30;56.90;;;;;;5098543;28;20027;-70
2021/06/13 11:30:44;;;;;;;3.65;3.35;;;32.30;55.00;;;;;;5097931;28;20048;-70
2021/06/13 11:33:11;;;;;;;6.28;4.40;;;32.20;58.40;;;;;;5098457;28;20324;-70
2021/06/13 11:35:44;;;;;;;5.25;4.22;;;32.10;54.80;;;;;;5097898;28;20027;-70
2021/06/13 11:38:09;;;;;;;6.32;5.80;;;32.00;57.90;;;;;;5098442;28;20028;-70
2021/06/13 11:40:36;;;;;;;9.20;5.80;;;31.80;53.50;;;;;;5097958;28;20039;-70
2021/06/13 11:43:09;;;;;;;5.55;5.03;;;31.50;53.40;;;;;;5098216;28;20081;-70
2021/06/13 11:45:35;;;;;;;5.18;4.72;;;31.50;56.80;;;;;;5098221;28;20036;-70
2021/06/13 11:48:22;;;;;;;4.50;4.10;;;31.40;57.50;;;;;;5098178;28;20072;-70
2021/06/13 11:51:08;;;;;;;8.77;7.97;;;31.40;59.50;;;;;;5098046;28;20028;-70
2021/06/13 11:53:52;;;;;;;8.95;8.02;;;31.40;54.40;;;;;;5097752;28;20031;-70
2021/06/13 11:56:33;;;;;;;6.65;5.28;;;31.30;55.20;;;;;;5097998;28;20039;-70
2021/06/13 11:59:08;;;;;;;6.65;6.05;;;31.00;60.90;;;;;;5097927;28;20294;-70
2021/06/13 12:01:37;;;;;;;6.38;5.78;;;31.00;57.50;;;;;;5097991;28;20035;-70
2021/06/13 12:04:07;;;;;;;6.38;5.78;;;30.60;57.70;;;;;;5097606;28;20159;-70
2021/06/13 12:06:37;;;;;;;7.05;4.07;;;30.40;60.30;;;;;;5097494;28;20024;-70
2021/06/13 12:09:08;;;;;;;4.90;4.50;;;30.30;61.80;;;;;;5097533;28;20028;-70
2021/06/13 12:11:41;;;;;;;3.85;3.50;;;30.20;62.70;;;;;;5097656;28;20485;-70
2021/06/13 12:14:41;;;;;;;5.70;5.10;;;30.20;61.00;;;;;;5097685;28;20035;-70
2021/06/13 12:17:10;;;;;;;6.53;5.82;;;30.00;61.50;;;;;;5098009;28;20028;-70
2021/06/13 12:19:50;;;;;;;6.07;5.00;;;30.00;59.60;;;;;;5097547;28;20043;-70
2021/06/13 12:27:28;;;;;;;5.45;4.95;;;29.70;58.10;;;;;;5097077;28;20039;-70
2021/06/13 12:29:56;;;;;;;4.85;4.45;;;29.60;56.70;;;;;;5096963;28;20119;-69
2021/06/13 12:32:22;;;;;;;5.28;4.78;;;29.40;56.60;;;;;;5097074;28;20427;-69
2021/06/13 12:34:53;;;;;;;5.15;4.18;;;29.20;56.60;;;;;;5097040;28;20024;-70
2021/06/13 12:37:24;;;;;;;6.78;4.90;;;29.40;63.30;;;;;;5097066;28;20052;-70
2021/06/13 12:39:54;;;;;;;6.85;5.90;;;29.40;63.30;;;;;;5096942;28;20485;-70
2021/06/13 12:42:20;;;;;;;7.80;7.03;;;29.50;57.60;;;;;;5097098;28;20032;-69
2021/06/13 12:44:46;;;;;;;7.18;6.43;;;29.50;61.50;;;;;;5096536;28;20424;-70
2021/06/13 12:47:17;;;;;;;11.07;9.80;;;29.30;57.50;;;;;;5097217;28;20031;-69
2021/06/13 12:49:45;;;;;;;10.60;9.50;;;29.30;60.20;;;;;;5096811;28;20028;-70
2021/06/13 12:52:16;;;;;;;10.40;8.20;;;29.20;61.00;;;;;;5097144;28;20070;-70
2021/06/13 12:54:43;;;;;;;12.45;7.30;;;29.30;59.30;;;;;;5097112;28;20028;-70
2021/06/13 12:57:09;;;;;;;9.65;8.85;;;29.30;58.80;;;;;;5097070;28;20040;-69
2021/06/13 12:59:36;;;;;;;7.47;6.78;;;29.20;57.10;;;;;;5097007;28;20026;-70
2021/06/13 13:02:10;;;;;;;9.13;8.32;;;28.90;61.50;;;;;;5097018;28;20309;-70
2021/06/13 13:04:43;;;;;;;10.25;7.55;;;28.60;61.50;;;;;;5096785;28;20023;-70
2021/06/13 13:07:10;;;;;;;9.75;7.43;;;28.50;62.60;;;;;;5096714;28;20024;-70
2021/06/13 13:09:35;;;;;;;6.75;6.05;;;28.60;63.10;;;;;;5096973;28;20035;-70